Impacts TAF Board INFO
FOR SITUATIONAL AWARENESS. NOT TO BE USED FOR FLIGHT PLANNING PURPOSES.
IDs:

KSFO - San Francisco Intl, CA, US

Issued at 0300 UTC 22 Nov 2017
Updated at 0331 UTC 22 Nov 2017
Potential Impact None Slight Moderate High
Time0256Z 22/04Z 22/05Z 22/06Z 22/07Z 22/08Z 22/09Z 22/10Z 22/11Z 22/12Z 22/13Z 22/14Z 22/15Z 22/16Z>>
Type OBS PRVL PRVL PRVL PRVL PRVL PRVL PRVL PRVL PRVL PRVL PRVL PRVL PRVL
VIS 10 >6 >6 >6 >6 >6 >6 >6 >6 >6 >6 >6 >6 >6
CIG -- -- -- -- -- -- -- -- -- -- -- -- -- --
Cover FEW SCT SCT SCT SCT SCT SCT FEW FEW FEW FEW FEW FEW FEW
FltCat VFR VFR VFR VFR VFR VFR VFR VFR VFR VFR VFR VFR VFR VFR
WX -- -- -- -- -- -- -- -- -- -- -- -- -- --
WDir VRB VRB VRB VRB VRB VRB VRB 20 20 20 20 20 20 20
WSpd 0 0 0 0 0 0 0 5 5 5 5 5 5 5
WGst -- -- -- -- -- -- -- -- -- -- -- -- -- --

Raw TAF
KSFO 220300Z 2203/2306 00000KT P6SM SCT250
  FM221000 02005KT P6SM FEW250
  FM221900 33004KT P6SM BKN250
  FM230400 29003KT P6SM OVC250


Raw METAR
KSFO 220256Z 00000KT 10SM FEW180 17/13 A3012 RMK AO2 SLP198 T01720128 53017
KSFO 220156Z 35005KT 10SM SCT180 17/13 A3009 RMK AO2 SLP190 T01720128
KSFO 220056Z 01004KT 10SM BKN180 17/13 A3008 RMK AO2 SLP184 T01720128

METAR Board
Radar Display
Forecast Discussion

FOR SITUATIONAL AWARENESS. NOT TO BE USED FOR FLIGHT PLANNING PURPOSES.